createdAt,value
2023-01-13T00:01:06.244Z,21.58
2023-01-13T00:03:32.710Z,28.08
2023-01-13T00:05:59.565Z,23.83
2023-01-13T00:08:26.194Z,20.65
2023-01-13T00:10:52.925Z,22.58
2023-01-13T00:13:26.752Z,23.98
2023-01-13T00:15:57.234Z,24.58
2023-01-13T00:18:23.809Z,25.00
2023-01-13T00:21:03.963Z,25.60
2023-01-13T00:23:31.431Z,27.88
2023-01-13T00:25:59.148Z,21.58
2023-01-13T00:28:25.994Z,25.90
2023-01-13T00:30:52.627Z,24.55
2023-01-13T00:33:19.306Z,23.73
2023-01-13T00:35:45.848Z,27.75
2023-01-13T00:38:12.287Z,22.95
2023-01-13T00:40:38.782Z,22.48
2023-01-13T00:43:23.642Z,25.95
2023-01-13T00:45:53.077Z,18.73
2023-01-13T00:48:20.066Z,23.67
2023-01-13T00:50:46.767Z,18.77
2023-01-13T00:53:14.881Z,19.35
2023-01-13T00:55:41.384Z,25.65
2023-01-13T00:58:07.948Z,24.08
2023-01-13T01:00:34.570Z,26.30
2023-01-13T01:03:01.117Z,28.30
2023-01-13T01:05:27.626Z,29.13
2023-01-13T01:07:54.078Z,25.02
2023-01-13T01:10:20.586Z,22.80
2023-01-13T01:12:47.050Z,31.88
2023-01-13T01:15:13.601Z,31.23
2023-01-13T01:17:41.459Z,31.08
2023-01-13T01:20:08.435Z,35.40
2023-01-13T01:22:34.936Z,25.67
2023-01-13T01:25:01.758Z,27.80
2023-01-13T01:27:28.307Z,33.83
2023-01-13T01:29:54.809Z,36.65
2023-01-13T01:32:21.295Z,40.05
2023-01-13T01:34:47.758Z,36.58
2023-01-13T01:37:14.240Z,30.88
2023-01-13T01:39:41.046Z,32.22
2023-01-13T01:42:30.672Z,37.75
2023-01-13T01:45:00.243Z,31.90
2023-01-13T01:47:27.881Z,34.15
2023-01-13T01:49:55.255Z,31.20
2023-01-13T01:52:28.093Z,30.60
2023-01-13T01:54:56.719Z,33.08
2023-01-13T01:57:24.881Z,38.65
2023-01-13T01:59:51.529Z,28.15
2023-01-13T02:02:18.359Z,42.78
2023-01-13T02:04:51.025Z,34.28
2023-01-13T02:07:18.931Z,29.35
2023-01-13T02:09:45.494Z,26.50
2023-01-13T02:12:30.223Z,37.15
2023-01-13T02:14:59.490Z,29.00
2023-01-13T02:17:28.976Z,29.25
2023-01-13T02:20:14.345Z,32.70
2023-01-13T02:22:59.695Z,36.65
2023-01-13T02:25:48.831Z,28.05
2023-01-13T02:28:30.739Z,26.90
2023-01-13T02:31:19.632Z,25.60
2023-01-13T02:33:51.211Z,30.50
2023-01-13T02:36:23.773Z,35.67
2023-01-13T02:38:52.778Z,25.38
2023-01-13T02:41:43.530Z,25.30
2023-01-13T02:44:11.290Z,32.55
2023-01-13T02:46:41.039Z,21.17
2023-01-13T02:49:10.343Z,28.80
2023-01-13T02:51:38.785Z,22.90
2023-01-13T02:54:08.323Z,29.00
2023-01-13T02:56:37.265Z,29.65
2023-01-13T02:59:04.314Z,32.72
2023-01-13T03:01:30.961Z,29.13
2023-01-13T03:03:57.499Z,27.60
2023-01-13T03:06:38.720Z,20.25
2023-01-13T03:09:15.217Z,24.10
2023-01-13T03:11:58.790Z,18.33
2023-01-13T03:14:30.272Z,14.73
2023-01-13T03:16:56.662Z,12.10
2023-01-13T03:19:39.599Z,9.77
2023-01-13T03:22:09.084Z,5.43
2023-01-13T03:24:47.908Z,7.57
2023-01-13T03:27:14.307Z,14.40
2023-01-13T03:29:50.514Z,13.70
2023-01-13T03:32:29.095Z,10.60
2023-01-13T03:34:57.289Z,11.80
2023-01-13T03:37:30.682Z,4.30
2023-01-13T03:40:02.267Z,11.23
2023-01-13T03:42:30.440Z,10.85
2023-01-13T03:45:04.181Z,7.80
2023-01-13T03:50:26.281Z,7.90
2023-01-13T03:53:04.121Z,10.98
2023-01-13T03:55:34.231Z,15.15
2023-01-13T03:58:14.448Z,19.15
2023-01-13T04:00:50.571Z,18.02
2023-01-13T04:03:23.308Z,17.23
2023-01-13T04:05:52.482Z,14.73
2023-01-13T04:08:28.754Z,20.85
2023-01-13T04:11:05.543Z,21.05
2023-01-13T04:13:34.125Z,21.40
2023-01-13T04:16:00.751Z,20.80
2023-01-13T04:18:28.454Z,23.05
2023-01-13T04:20:56.584Z,26.17
2023-01-13T04:23:23.193Z,23.33
2023-01-13T04:25:50.036Z,20.02
2023-01-13T04:28:16.867Z,17.58
2023-01-13T04:30:43.528Z,17.20
2023-01-13T04:33:10.616Z,24.27
2023-01-13T04:35:37.384Z,16.83
2023-01-13T04:38:04.930Z,25.48
2023-01-13T04:40:31.507Z,17.25
2023-01-13T04:42:57.971Z,14.95
2023-01-13T04:45:24.507Z,21.67
2023-01-13T04:47:51.706Z,18.38
2023-01-13T04:50:22.800Z,17.27
2023-01-13T04:52:53.068Z,17.00
2023-01-13T04:55:20.613Z,19.05
2023-01-13T04:57:47.092Z,18.92
2023-01-13T05:00:14.696Z,13.40
2023-01-13T05:02:41.284Z,17.58
2023-01-13T05:05:08.093Z,18.98
2023-01-13T05:07:34.643Z,16.95
2023-01-13T05:10:01.081Z,14.35
2023-01-13T05:12:46.280Z,19.55
2023-01-13T05:15:33.258Z,17.35
2023-01-13T05:18:00.558Z,19.88
2023-01-13T05:20:27.104Z,15.75
2023-01-13T05:23:12.221Z,23.15
2023-01-13T05:25:39.880Z,14.88
2023-01-13T05:28:07.086Z,13.43
2023-01-13T05:30:36.807Z,15.55
2023-01-13T05:33:03.359Z,16.95
2023-01-13T05:35:29.921Z,21.30
2023-01-13T05:37:56.553Z,14.73
2023-01-13T05:40:41.780Z,28.17
2023-01-13T05:43:21.481Z,19.42
2023-01-13T05:45:48.005Z,21.65
2023-01-13T05:48:15.056Z,16.15
2023-01-13T05:50:41.541Z,23.05
2023-01-13T05:53:08.065Z,22.35
2023-01-13T05:55:34.564Z,22.00
2023-01-13T05:58:01.070Z,22.38
2023-01-13T06:00:27.525Z,18.88
2023-01-13T06:02:54.003Z,20.25
2023-01-13T06:05:20.555Z,21.00
2023-01-13T06:07:47.139Z,24.23
2023-01-13T06:10:13.619Z,20.10
2023-01-13T06:12:40.185Z,27.20
2023-01-13T06:15:06.977Z,22.17
2023-01-13T06:17:33.430Z,22.33
2023-01-13T06:19:59.862Z,20.77
2023-01-13T06:22:35.701Z,15.45
2023-01-13T06:25:02.270Z,23.52
2023-01-13T06:27:29.058Z,22.63
2023-01-13T06:29:57.151Z,23.42
2023-01-13T06:32:29.624Z,17.85
2023-01-13T06:34:59.270Z,24.08
2023-01-13T06:37:26.248Z,20.20
2023-01-13T06:39:56.922Z,22.33
2023-01-13T06:42:42.039Z,14.80
2023-01-13T06:45:08.819Z,18.33
2023-01-13T06:47:35.295Z,16.23
2023-01-13T06:50:01.807Z,27.63
2023-01-13T06:52:30.533Z,17.92
2023-01-13T06:54:57.665Z,22.05
2023-01-13T06:57:24.422Z,17.90
2023-01-13T06:59:50.920Z,20.88
2023-01-13T07:02:17.509Z,21.38
2023-01-13T07:04:45.185Z,26.30
2023-01-13T07:07:12.503Z,26.23
2023-01-13T07:09:39.536Z,22.00
2023-01-13T07:12:06.453Z,24.25
2023-01-13T07:14:51.671Z,27.17
2023-01-13T07:17:25.163Z,15.88
2023-01-13T07:22:18.476Z,29.92
2023-01-13T07:24:44.993Z,19.77
2023-01-13T07:27:14.174Z,21.77
2023-01-13T07:29:40.720Z,14.35
2023-01-13T07:32:08.069Z,21.88
2023-01-13T07:34:34.613Z,17.58
2023-01-13T07:37:01.403Z,18.13
2023-01-13T07:39:28.201Z,31.13
2023-01-13T07:42:13.406Z,25.60
2023-01-13T07:44:39.897Z,24.33
2023-01-13T07:47:08.570Z,27.92
2023-01-13T07:49:35.092Z,23.40
2023-01-13T07:52:01.811Z,26.58
2023-01-13T07:54:40.184Z,22.80
2023-01-13T07:57:07.855Z,26.25
2023-01-13T07:59:34.510Z,23.10
2023-01-13T08:02:01.297Z,24.17
2023-01-13T08:04:27.905Z,25.80
2023-01-13T08:06:54.501Z,23.38
2023-01-13T08:09:20.994Z,23.40
2023-01-13T08:12:07.476Z,31.90
2023-01-13T08:14:34.060Z,25.42
2023-01-13T08:17:00.588Z,17.33
2023-01-13T08:19:27.055Z,29.77
2023-01-13T08:21:53.566Z,27.15
2023-01-13T08:24:20.031Z,29.20
2023-01-13T08:26:46.520Z,20.33
2023-01-13T08:29:14.914Z,27.90
2023-01-13T08:31:41.661Z,26.88
2023-01-13T08:34:08.121Z,21.45
2023-01-13T08:36:34.694Z,23.30
2023-01-13T08:39:01.280Z,24.08
2023-01-13T08:41:46.386Z,22.52
2023-01-13T08:44:12.874Z,28.08
2023-01-13T08:46:39.432Z,32.90
2023-01-13T08:49:05.891Z,33.03
2023-01-13T08:51:32.403Z,29.02
2023-01-13T08:53:58.986Z,28.92
2023-01-13T08:56:25.495Z,32.20
2023-01-13T08:58:51.925Z,33.65
2023-01-13T09:01:21.345Z,30.42
2023-01-13T09:03:47.896Z,31.98
2023-01-13T09:06:14.615Z,37.17
2023-01-13T09:08:41.206Z,26.30
2023-01-13T09:11:28.372Z,30.42
2023-01-13T09:13:54.922Z,24.77
2023-01-13T09:16:21.352Z,50.92
2023-01-13T09:18:47.814Z,42.45
2023-01-13T09:21:14.349Z,33.35
2023-01-13T09:23:40.900Z,34.22
2023-01-13T09:26:08.286Z,31.42
2023-01-13T09:28:34.762Z,31.60
2023-01-13T09:31:01.669Z,31.85
2023-01-13T09:33:46.942Z,39.17
2023-01-13T09:36:13.426Z,40.85
2023-01-13T09:38:39.932Z,32.38
2023-01-13T09:41:26.374Z,31.60
2023-01-13T09:43:57.181Z,29.25
2023-01-13T09:46:47.500Z,33.90
2023-01-13T09:49:20.859Z,35.58
2023-01-13T09:51:53.159Z,30.60
2023-01-13T09:54:32.206Z,30.10
2023-01-13T09:56:59.365Z,35.17
2023-01-13T09:59:29.493Z,37.88
2023-01-13T10:02:01.984Z,30.85
2023-01-13T10:04:28.477Z,25.17
2023-01-13T10:07:00.691Z,25.05
2023-01-13T10:09:27.179Z,28.60
2023-01-13T10:12:14.781Z,31.63
2023-01-13T10:14:44.104Z,28.75
2023-01-13T10:17:11.886Z,28.13
2023-01-13T10:19:46.744Z,33.00
2023-01-13T10:22:28.261Z,28.98
2023-01-13T10:25:12.554Z,30.40
2023-01-13T10:27:49.430Z,28.35
2023-01-13T10:30:20.559Z,19.95
2023-01-13T10:32:57.748Z,28.05
2023-01-13T10:35:43.974Z,35.60
2023-01-13T10:38:16.276Z,31.40
2023-01-13T10:41:09.023Z,23.45
2023-01-13T10:43:35.511Z,38.65
2023-01-13T10:46:06.836Z,29.45
2023-01-13T10:49:02.846Z,25.45
2023-01-13T10:51:30.674Z,20.70
2023-01-13T10:53:58.828Z,32.78
2023-01-13T10:56:27.444Z,37.22
2023-01-13T10:59:08.818Z,33.05
2023-01-13T11:01:38.082Z,31.45
2023-01-13T11:04:16.510Z,27.10
2023-01-13T11:06:46.720Z,35.58
2023-01-13T11:09:19.309Z,43.20
2023-01-13T11:11:47.429Z,26.38
2023-01-13T11:14:40.197Z,25.70
2023-01-13T11:17:12.289Z,28.65
2023-01-13T11:19:42.121Z,35.03
2023-01-13T11:22:08.779Z,24.73
2023-01-13T11:24:37.894Z,30.65
2023-01-13T11:27:27.716Z,24.75
2023-01-13T11:29:59.833Z,24.90
2023-01-13T11:32:29.328Z,26.55
2023-01-13T11:35:14.907Z,21.58
2023-01-13T11:37:44.518Z,34.33
2023-01-13T11:40:16.582Z,31.52
2023-01-13T11:42:55.497Z,20.67
2023-01-13T11:45:42.317Z,23.67
2023-01-13T11:48:12.609Z,26.20
2023-01-13T11:50:45.345Z,20.42
2023-01-13T11:53:17.829Z,26.48
2023-01-13T11:55:53.699Z,26.60
2023-01-13T11:58:25.057Z,17.52
2023-01-13T12:01:02.930Z,25.30
2023-01-13T12:03:38.451Z,23.95
2023-01-13T12:06:26.311Z,18.35
2023-01-13T12:08:55.882Z,28.98
2023-01-13T12:11:59.049Z,19.08
2023-01-13T12:14:38.243Z,16.48
2023-01-13T12:17:08.442Z,21.05
2023-01-13T12:19:40.388Z,16.83
2023-01-13T12:22:12.629Z,20.42
2023-01-13T12:25:12.156Z,14.82
2023-01-13T12:27:50.020Z,15.93
2023-01-13T12:30:27.369Z,17.08
2023-01-13T12:32:59.682Z,16.85
2023-01-13T12:35:33.850Z,18.83
2023-01-13T12:38:11.517Z,22.92
2023-01-13T12:40:51.718Z,22.92
2023-01-13T12:43:38.558Z,24.05
2023-01-13T12:46:21.419Z,21.80
2023-01-13T12:48:57.295Z,20.20
2023-01-13T12:51:33.899Z,21.60
2023-01-13T12:54:01.475Z,13.70
2023-01-13T12:56:45.998Z,21.48
2023-01-13T12:59:21.500Z,20.45
2023-01-13T13:01:49.183Z,20.90
2023-01-13T13:04:38.749Z,18.00
2023-01-13T13:07:08.251Z,20.42
2023-01-13T13:09:45.078Z,18.70
2023-01-13T13:12:48.887Z,16.45
2023-01-13T13:15:26.569Z,14.70
2023-01-13T13:17:59.476Z,19.67
2023-01-13T13:20:44.957Z,18.88
2023-01-13T13:23:28.121Z,16.23
2023-01-13T13:26:10.004Z,16.52
2023-01-13T13:28:38.553Z,20.35
2023-01-13T13:31:23.203Z,15.68
2023-01-13T13:34:15.954Z,20.42
2023-01-13T13:36:42.407Z,27.08
2023-01-13T13:39:40.220Z,19.30
2023-01-13T13:42:30.274Z,20.60
2023-01-13T13:45:15.933Z,24.15
2023-01-13T13:47:42.440Z,21.10
2023-01-13T13:50:13.763Z,29.00
2023-01-13T13:52:42.806Z,23.58
2023-01-13T13:55:14.775Z,18.00
2023-01-13T13:57:44.840Z,26.23
2023-01-13T14:00:20.520Z,18.85
2023-01-13T14:02:48.562Z,24.83
2023-01-13T14:05:15.004Z,23.98
2023-01-13T14:07:42.573Z,18.27
2023-01-13T14:10:14.229Z,26.42
2023-01-13T14:12:41.530Z,21.08
2023-01-13T14:15:23.847Z,18.98
2023-01-13T14:17:50.428Z,20.75
2023-01-13T14:20:17.728Z,18.13
2023-01-13T14:22:48.294Z,18.02
2023-01-13T14:25:27.265Z,22.65
2023-01-13T14:27:54.970Z,17.48
2023-01-13T14:30:22.837Z,20.33
2023-01-13T14:32:49.403Z,29.63
2023-01-13T14:35:16.566Z,23.73
2023-01-13T14:37:43.422Z,19.10
2023-01-13T14:40:33.332Z,26.35
2023-01-13T14:43:03.228Z,16.52
2023-01-13T14:45:33.033Z,32.22
2023-01-13T14:48:03.294Z,21.80
2023-01-13T14:50:33.853Z,28.73
2023-01-13T14:53:01.455Z,22.80
2023-01-13T14:55:28.093Z,23.80
2023-01-13T14:58:14.560Z,22.23
2023-01-13T15:00:41.100Z,17.83
2023-01-13T15:03:08.079Z,20.15
2023-01-13T15:05:36.354Z,23.77
2023-01-13T15:08:02.935Z,21.92
2023-01-13T15:10:31.457Z,19.98
2023-01-13T15:12:59.613Z,22.42
2023-01-13T15:15:28.504Z,19.73
2023-01-13T15:17:55.014Z,23.80
2023-01-13T15:20:24.644Z,20.67
2023-01-13T15:22:51.782Z,20.60
2023-01-13T15:25:18.247Z,13.60
2023-01-13T15:27:45.906Z,15.25
2023-01-13T15:30:16.753Z,13.73
2023-01-13T15:32:43.635Z,18.02
2023-01-13T15:35:14.187Z,15.18
2023-01-13T15:37:41.185Z,12.48
2023-01-13T15:40:29.639Z,17.90
2023-01-13T15:43:14.784Z,16.83
2023-01-13T15:46:00.082Z,14.90
2023-01-13T15:48:28.009Z,18.63
2023-01-13T15:50:54.489Z,15.35
2023-01-13T15:53:21.276Z,18.20
2023-01-13T15:55:51.019Z,13.27
2023-01-13T15:58:19.000Z,17.67
2023-01-13T16:00:45.668Z,14.05
2023-01-13T16:03:16.094Z,11.77
2023-01-13T16:05:43.692Z,18.38
2023-01-13T16:08:20.371Z,18.45
2023-01-13T16:10:47.081Z,17.58
2023-01-13T16:13:13.950Z,17.75
2023-01-13T16:15:44.485Z,15.68
2023-01-13T16:18:15.741Z,15.45
2023-01-13T16:20:42.454Z,13.20
2023-01-13T16:23:09.017Z,20.45
2023-01-13T16:25:35.626Z,14.43
2023-01-13T16:28:02.303Z,21.55
2023-01-13T16:30:30.478Z,22.52
2023-01-13T16:32:57.275Z,16.42
2023-01-13T16:35:24.231Z,16.20
2023-01-13T16:37:50.943Z,18.58
2023-01-13T16:40:22.421Z,20.90
2023-01-13T16:42:49.053Z,16.33
2023-01-13T16:45:15.671Z,13.50
2023-01-13T16:47:43.861Z,14.35
2023-01-13T16:50:23.170Z,19.48
2023-01-13T16:52:49.811Z,17.00
2023-01-13T16:55:16.342Z,16.25
2023-01-13T16:57:42.910Z,19.40
2023-01-13T17:00:13.054Z,18.17
2023-01-13T17:02:39.785Z,23.67
2023-01-13T17:05:06.816Z,20.27
2023-01-13T17:07:33.603Z,16.95
2023-01-13T17:10:00.095Z,20.73
2023-01-13T17:12:26.695Z,20.00
2023-01-13T17:14:53.181Z,20.70
2023-01-13T17:17:21.533Z,14.95
2023-01-13T17:19:48.040Z,22.45
2023-01-13T17:22:14.710Z,20.50
2023-01-13T17:24:41.272Z,16.23
2023-01-13T17:27:07.877Z,17.33
2023-01-13T17:29:34.488Z,18.73
2023-01-13T17:32:01.409Z,17.75
2023-01-13T17:34:27.970Z,20.00
2023-01-13T17:36:54.418Z,19.60
2023-01-13T17:39:23.656Z,26.52
2023-01-13T17:41:51.227Z,26.35
2023-01-13T17:44:18.581Z,20.90
2023-01-13T17:46:45.495Z,20.50
2023-01-13T17:49:12.688Z,18.45
2023-01-13T17:51:39.220Z,21.83
2023-01-13T17:54:05.786Z,20.45
2023-01-13T17:56:32.416Z,17.45
2023-01-13T17:58:58.828Z,21.58
2023-01-13T18:01:30.439Z,24.98
2023-01-13T18:03:57.309Z,19.70
2023-01-13T18:06:24.126Z,23.95
2023-01-13T18:08:50.594Z,19.17
2023-01-13T18:11:21.203Z,17.02
2023-01-13T18:13:54.805Z,21.70
2023-01-13T18:16:21.493Z,29.27
2023-01-13T18:18:50.361Z,20.30
2023-01-13T18:21:40.225Z,21.30
2023-01-13T18:24:29.458Z,19.40
2023-01-13T18:27:14.348Z,24.58
2023-01-13T18:29:40.764Z,19.83
2023-01-13T18:32:08.982Z,22.02
2023-01-13T18:34:38.735Z,22.85
2023-01-13T18:37:06.306Z,18.92
2023-01-13T18:39:32.939Z,26.45
2023-01-13T18:42:18.117Z,26.65
2023-01-13T18:44:44.612Z,20.17
2023-01-13T18:47:11.115Z,23.13
2023-01-13T18:49:37.627Z,27.80
2023-01-13T18:52:04.286Z,22.27
2023-01-13T18:54:30.793Z,24.08
2023-01-13T18:56:57.479Z,20.02
2023-01-13T18:59:24.561Z,24.02
2023-01-13T19:01:54.073Z,22.30
2023-01-13T19:04:20.633Z,22.52
2023-01-13T19:06:53.615Z,22.05
2023-01-13T19:09:24.374Z,25.13
2023-01-13T19:11:51.670Z,22.75
2023-01-13T19:14:38.340Z,34.47
2023-01-13T19:17:06.711Z,21.10
2023-01-13T19:19:33.208Z,31.40
2023-01-13T19:21:59.762Z,27.58
2023-01-13T19:24:26.256Z,30.08
2023-01-13T19:26:53.504Z,38.35
2023-01-13T19:29:20.440Z,23.15
2023-01-13T19:31:46.903Z,27.42
2023-01-13T19:34:13.629Z,35.00
2023-01-13T19:36:40.114Z,30.05
2023-01-13T19:39:06.781Z,24.65
2023-01-13T19:41:51.892Z,29.85
2023-01-13T19:44:37.037Z,28.15
2023-01-13T19:47:04.343Z,34.03
2023-01-13T19:49:30.833Z,23.27
2023-01-13T19:51:57.452Z,21.35
2023-01-13T19:54:24.148Z,25.48
2023-01-13T19:56:50.661Z,22.45
2023-01-13T19:59:22.219Z,22.58
2023-01-13T20:01:52.376Z,27.85
2023-01-13T20:04:26.707Z,24.45
2023-01-13T20:06:53.225Z,20.42
2023-01-13T20:09:19.687Z,20.88
2023-01-13T20:11:48.724Z,27.02
2023-01-13T20:14:15.437Z,29.48
2023-01-13T20:16:41.890Z,21.65
2023-01-13T20:19:08.397Z,26.42
2023-01-13T20:21:34.816Z,25.92
2023-01-13T20:24:01.334Z,28.13
2023-01-13T20:26:27.802Z,25.70
2023-01-13T20:28:54.414Z,19.52
2023-01-13T20:31:20.991Z,23.95
2023-01-13T20:33:50.880Z,26.52
2023-01-13T20:36:25.092Z,25.67
2023-01-13T20:38:51.600Z,25.48
2023-01-13T20:41:36.863Z,29.92
2023-01-13T20:44:03.318Z,24.73
2023-01-13T20:46:29.855Z,28.80
2023-01-13T20:48:56.268Z,31.15
2023-01-13T20:51:22.762Z,32.13
2023-01-13T20:53:49.290Z,31.13
2023-01-13T20:56:15.765Z,23.40
2023-01-13T20:58:43.979Z,26.75
2023-01-13T21:01:10.489Z,26.55
2023-01-13T21:03:37.129Z,29.13
2023-01-13T21:06:03.645Z,37.80
2023-01-13T21:08:30.263Z,29.27
2023-01-13T21:11:04.613Z,28.85
2023-01-13T21:13:50.135Z,34.15
2023-01-13T21:16:16.758Z,32.22
2023-01-13T21:19:01.914Z,37.60
2023-01-13T21:21:28.317Z,25.92
2023-01-13T21:23:54.894Z,36.90
2023-01-13T21:26:22.165Z,35.63
2023-01-13T21:28:55.609Z,22.98
2023-01-13T21:31:22.204Z,31.00
2023-01-13T21:33:52.534Z,33.50
2023-01-13T21:36:19.044Z,31.40
2023-01-13T21:38:49.942Z,27.25
2023-01-13T21:41:36.321Z,31.20
2023-01-13T21:44:21.457Z,27.15
2023-01-13T21:47:06.581Z,35.22
2023-01-13T21:49:33.142Z,29.75
2023-01-13T21:51:59.852Z,29.10
2023-01-13T21:54:26.271Z,43.13
2023-01-13T21:56:52.773Z,29.23
2023-01-13T21:59:19.688Z,28.25
2023-01-13T22:02:23.234Z,29.23
2023-01-13T22:04:32.672Z,27.48
2023-01-13T22:07:02.009Z,21.17
2023-01-13T22:09:30.133Z,24.55
2023-01-13T22:11:56.564Z,24.73
2023-01-13T22:14:24.424Z,37.92
2023-01-13T22:16:51.117Z,25.98
2023-01-13T22:19:18.775Z,24.35
2023-01-13T22:21:45.195Z,23.35
2023-01-13T22:24:11.806Z,31.98
2023-01-13T22:26:38.308Z,31.45
2023-01-13T22:29:04.963Z,29.63
2023-01-13T22:31:31.864Z,28.52
2023-01-13T22:33:58.359Z,30.02
2023-01-13T22:36:24.879Z,27.67
2023-01-13T22:38:55.882Z,27.80
2023-01-13T22:41:22.434Z,24.45
2023-01-13T22:43:48.864Z,27.88
2023-01-13T22:46:15.417Z,28.10
2023-01-13T22:48:41.921Z,31.33
2023-01-13T22:51:15.447Z,25.15
2023-01-13T22:53:42.417Z,17.67
2023-01-13T22:56:15.042Z,31.90
2023-01-13T22:58:41.519Z,27.63
2023-01-13T23:01:09.237Z,20.20
2023-01-13T23:03:35.808Z,27.88
2023-01-13T23:06:02.355Z,28.35
2023-01-13T23:08:28.823Z,23.15
2023-01-13T23:11:05.481Z,20.08
2023-01-13T23:13:32.415Z,24.00
2023-01-13T23:16:09.652Z,24.58
2023-01-13T23:18:36.479Z,25.65
2023-01-13T23:21:03.799Z,25.30
2023-01-13T23:23:30.650Z,28.15
2023-01-13T23:25:57.157Z,18.50
2023-01-13T23:28:23.675Z,31.75
2023-01-13T23:30:50.449Z,24.55
2023-01-13T23:33:17.312Z,20.63
2023-01-13T23:35:44.527Z,24.55
2023-01-13T23:38:10.981Z,27.73
2023-01-13T23:40:38.451Z,30.92
2023-01-13T23:43:04.945Z,32.47
2023-01-13T23:45:31.435Z,31.90
2023-01-13T23:47:57.926Z,30.23
2023-01-13T23:50:25.159Z,29.90
2023-01-13T23:52:51.605Z,42.28
2023-01-13T23:55:18.080Z,32.08
2023-01-13T23:57:44.551Z,31.35
